sensor_id;sensor_type;location;lat;lon;timestamp;P1;durP1;ratioP1;P2;durP2;ratioP2
22644;SDS011;11489;50.834;6.752;2022-11-20T00:00:29;27.10;;;13.40;;
22644;SDS011;11489;50.834;6.752;2022-11-20T00:02:55;29.33;;;14.53;;
22644;SDS011;11489;50.834;6.752;2022-11-20T00:05:20;32.10;;;14.73;;
22644;SDS011;11489;50.834;6.752;2022-11-20T00:07:46;30.57;;;14.07;;
22644;SDS011;11489;50.834;6.752;2022-11-20T00:10:12;28.87;;;15.10;;
22644;SDS011;11489;50.834;6.752;2022-11-20T00:12:37;27.60;;;14.13;;
22644;SDS011;11489;50.834;6.752;2022-11-20T00:15:03;31.57;;;14.17;;
22644;SDS011;11489;50.834;6.752;2022-11-20T00:17:29;30.10;;;15.03;;
22644;SDS011;11489;50.834;6.752;2022-11-20T00:19:55;30.17;;;15.23;;
22644;SDS011;11489;50.834;6.752;2022-11-20T00:22:21;30.13;;;14.57;;
22644;SDS011;11489;50.834;6.752;2022-11-20T00:24:46;31.50;;;14.73;;
22644;SDS011;11489;50.834;6.752;2022-11-20T00:27:12;30.07;;;14.97;;
22644;SDS011;11489;50.834;6.752;2022-11-20T00:29:38;31.17;;;15.43;;
22644;SDS011;11489;50.834;6.752;2022-11-20T00:32:04;32.40;;;15.43;;
22644;SDS011;11489;50.834;6.752;2022-11-20T00:34:29;30.47;;;14.70;;
22644;SDS011;11489;50.834;6.752;2022-11-20T00:36:55;31.00;;;15.63;;
22644;SDS011;11489;50.834;6.752;2022-11-20T00:39:20;32.83;;;15.73;;
22644;SDS011;11489;50.834;6.752;2022-11-20T00:41:46;32.20;;;14.93;;
22644;SDS011;11489;50.834;6.752;2022-11-20T00:44:12;30.73;;;15.30;;
22644;SDS011;11489;50.834;6.752;2022-11-20T00:46:37;27.40;;;14.43;;
22644;SDS011;11489;50.834;6.752;2022-11-20T00:49:03;29.93;;;15.17;;
22644;SDS011;11489;50.834;6.752;2022-11-20T00:51:30;27.80;;;14.50;;
22644;SDS011;11489;50.834;6.752;2022-11-20T00:53:57;29.37;;;14.33;;
22644;SDS011;11489;50.834;6.752;2022-11-20T00:56:25;27.07;;;13.93;;
22644;SDS011;11489;50.834;6.752;2022-11-20T00:58:51;27.40;;;14.17;;
22644;SDS011;11489;50.834;6.752;2022-11-20T01:01:17;31.40;;;14.73;;
22644;SDS011;11489;50.834;6.752;2022-11-20T01:03:48;30.00;;;15.57;;
22644;SDS011;11489;50.834;6.752;2022-11-20T01:06:16;30.53;;;15.40;;
22644;SDS011;11489;50.834;6.752;2022-11-20T01:08:43;31.07;;;15.30;;
22644;SDS011;11489;50.834;6.752;2022-11-20T01:11:10;28.30;;;14.67;;
22644;SDS011;11489;50.834;6.752;2022-11-20T01:13:38;31.13;;;15.50;;
22644;SDS011;11489;50.834;6.752;2022-11-20T01:16:15;29.20;;;14.77;;
22644;SDS011;11489;50.834;6.752;2022-11-20T01:18:47;30.00;;;15.00;;
22644;SDS011;11489;50.834;6.752;2022-11-20T01:21:24;30.93;;;14.63;;
22644;SDS011;11489;50.834;6.752;2022-11-20T01:23:55;27.27;;;14.40;;
22644;SDS011;11489;50.834;6.752;2022-11-20T01:26:22;27.60;;;14.67;;
22644;SDS011;11489;50.834;6.752;2022-11-20T01:28:49;30.80;;;15.30;;
22644;SDS011;11489;50.834;6.752;2022-11-20T01:31:20;31.17;;;14.63;;
22644;SDS011;11489;50.834;6.752;2022-11-20T01:33:48;30.67;;;15.40;;
22644;SDS011;11489;50.834;6.752;2022-11-20T01:36:15;28.37;;;15.13;;
22644;SDS011;11489;50.834;6.752;2022-11-20T01:38:42;35.03;;;15.27;;
22644;SDS011;11489;50.834;6.752;2022-11-20T01:41:08;31.07;;;15.60;;
22644;SDS011;11489;50.834;6.752;2022-11-20T01:43:35;32.07;;;15.60;;
22644;SDS011;11489;50.834;6.752;2022-11-20T01:46:13;34.10;;;15.33;;
22644;SDS011;11489;50.834;6.752;2022-11-20T01:51:29;30.27;;;14.53;;
22644;SDS011;11489;50.834;6.752;2022-11-20T01:54:05;28.10;;;14.37;;
22644;SDS011;11489;50.834;6.752;2022-11-20T01:56:58;28.60;;;13.70;;
22644;SDS011;11489;50.834;6.752;2022-11-20T01:59:25;26.40;;;14.23;;
22644;SDS011;11489;50.834;6.752;2022-11-20T02:01:53;30.80;;;14.83;;
22644;SDS011;11489;50.834;6.752;2022-11-20T02:04:19;29.13;;;14.77;;
22644;SDS011;11489;50.834;6.752;2022-11-20T02:06:47;31.27;;;15.73;;
22644;SDS011;11489;50.834;6.752;2022-11-20T02:09:15;31.53;;;14.93;;
22644;SDS011;11489;50.834;6.752;2022-11-20T02:11:41;27.63;;;13.90;;
22644;SDS011;11489;50.834;6.752;2022-11-20T02:14:07;30.20;;;15.20;;
22644;SDS011;11489;50.834;6.752;2022-11-20T02:16:34;27.07;;;13.23;;
22644;SDS011;11489;50.834;6.752;2022-11-20T02:19:02;28.33;;;14.47;;
22644;SDS011;11489;50.834;6.752;2022-11-20T02:24:06;28.77;;;14.83;;
22644;SDS011;11489;50.834;6.752;2022-11-20T02:26:38;28.67;;;14.43;;
22644;SDS011;11489;50.834;6.752;2022-11-20T02:29:31;26.50;;;13.63;;
22644;SDS011;11489;50.834;6.752;2022-11-20T02:32:01;28.90;;;14.27;;
22644;SDS011;11489;50.834;6.752;2022-11-20T02:34:27;29.47;;;14.47;;
22644;SDS011;11489;50.834;6.752;2022-11-20T02:36:53;25.87;;;13.83;;
22644;SDS011;11489;50.834;6.752;2022-11-20T02:39:20;24.50;;;13.03;;
22644;SDS011;11489;50.834;6.752;2022-11-20T02:41:50;28.20;;;13.90;;
22644;SDS011;11489;50.834;6.752;2022-11-20T02:44:18;26.27;;;13.30;;
22644;SDS011;11489;50.834;6.752;2022-11-20T02:46:44;28.20;;;14.17;;
22644;SDS011;11489;50.834;6.752;2022-11-20T02:49:10;30.17;;;14.80;;
22644;SDS011;11489;50.834;6.752;2022-11-20T02:51:36;28.70;;;14.00;;
22644;SDS011;11489;50.834;6.752;2022-11-20T02:54:02;27.97;;;14.73;;
22644;SDS011;11489;50.834;6.752;2022-11-20T02:56:28;28.73;;;13.90;;
22644;SDS011;11489;50.834;6.752;2022-11-20T02:58:53;28.63;;;14.27;;
22644;SDS011;11489;50.834;6.752;2022-11-20T03:01:19;25.13;;;13.00;;
22644;SDS011;11489;50.834;6.752;2022-11-20T03:03:45;28.33;;;14.23;;
22644;SDS011;11489;50.834;6.752;2022-11-20T03:06:10;30.17;;;14.67;;
22644;SDS011;11489;50.834;6.752;2022-11-20T03:08:36;27.60;;;13.60;;
22644;SDS011;11489;50.834;6.752;2022-11-20T03:11:06;28.43;;;14.37;;
22644;SDS011;11489;50.834;6.752;2022-11-20T03:13:32;25.40;;;13.43;;
22644;SDS011;11489;50.834;6.752;2022-11-20T03:16:09;26.90;;;13.23;;
22644;SDS011;11489;50.834;6.752;2022-11-20T03:18:37;26.83;;;14.43;;
22644;SDS011;11489;50.834;6.752;2022-11-20T03:21:03;26.77;;;13.47;;
22644;SDS011;11489;50.834;6.752;2022-11-20T03:23:30;27.00;;;13.73;;
22644;SDS011;11489;50.834;6.752;2022-11-20T03:26:06;26.47;;;13.77;;
22644;SDS011;11489;50.834;6.752;2022-11-20T03:28:33;26.73;;;13.27;;
22644;SDS011;11489;50.834;6.752;2022-11-20T03:31:04;30.10;;;14.27;;
22644;SDS011;11489;50.834;6.752;2022-11-20T03:33:40;30.30;;;14.50;;
22644;SDS011;11489;50.834;6.752;2022-11-20T03:36:16;31.47;;;14.93;;
22644;SDS011;11489;50.834;6.752;2022-11-20T03:38:44;29.90;;;14.47;;
22644;SDS011;11489;50.834;6.752;2022-11-20T03:41:11;29.27;;;14.47;;
22644;SDS011;11489;50.834;6.752;2022-11-20T03:43:39;30.03;;;14.67;;
22644;SDS011;11489;50.834;6.752;2022-11-20T03:46:05;31.00;;;14.73;;
22644;SDS011;11489;50.834;6.752;2022-11-20T03:48:32;30.87;;;14.20;;
22644;SDS011;11489;50.834;6.752;2022-11-20T03:51:11;28.77;;;13.87;;
22644;SDS011;11489;50.834;6.752;2022-11-20T03:53:38;30.00;;;14.97;;
22644;SDS011;11489;50.834;6.752;2022-11-20T03:56:05;30.00;;;14.00;;
22644;SDS011;11489;50.834;6.752;2022-11-20T03:58:32;31.37;;;15.17;;
22644;SDS011;11489;50.834;6.752;2022-11-20T04:01:04;29.90;;;15.23;;
22644;SDS011;11489;50.834;6.752;2022-11-20T04:03:33;30.80;;;14.50;;
22644;SDS011;11489;50.834;6.752;2022-11-20T04:06:07;30.73;;;14.97;;
22644;SDS011;11489;50.834;6.752;2022-11-20T04:08:34;32.30;;;15.03;;
22644;SDS011;11489;50.834;6.752;2022-11-20T04:11:12;30.47;;;14.57;;
22644;SDS011;11489;50.834;6.752;2022-11-20T04:13:47;30.20;;;14.37;;
22644;SDS011;11489;50.834;6.752;2022-11-20T04:16:14;34.33;;;15.27;;
22644;SDS011;11489;50.834;6.752;2022-11-20T04:18:40;26.83;;;13.60;;
22644;SDS011;11489;50.834;6.752;2022-11-20T04:21:06;33.60;;;14.57;;
22644;SDS011;11489;50.834;6.752;2022-11-20T04:23:32;30.70;;;14.30;;
22644;SDS011;11489;50.834;6.752;2022-11-20T04:26:05;26.73;;;13.77;;
22644;SDS011;11489;50.834;6.752;2022-11-20T04:28:35;25.97;;;12.97;;
22644;SDS011;11489;50.834;6.752;2022-11-20T04:31:05;29.63;;;14.07;;
22644;SDS011;11489;50.834;6.752;2022-11-20T04:33:39;29.00;;;15.00;;
22644;SDS011;11489;50.834;6.752;2022-11-20T04:36:06;27.70;;;13.77;;
22644;SDS011;11489;50.834;6.752;2022-11-20T04:38:35;28.13;;;13.33;;
22644;SDS011;11489;50.834;6.752;2022-11-20T04:41:01;28.87;;;14.57;;
22644;SDS011;11489;50.834;6.752;2022-11-20T04:43:29;29.70;;;14.10;;
22644;SDS011;11489;50.834;6.752;2022-11-20T04:45:56;31.40;;;14.67;;
22644;SDS011;11489;50.834;6.752;2022-11-20T04:48:22;30.90;;;14.67;;
22644;SDS011;11489;50.834;6.752;2022-11-20T04:50:49;27.77;;;14.13;;
22644;SDS011;11489;50.834;6.752;2022-11-20T04:53:15;28.93;;;14.13;;
22644;SDS011;11489;50.834;6.752;2022-11-20T04:55:41;32.13;;;14.33;;
22644;SDS011;11489;50.834;6.752;2022-11-20T04:58:07;27.27;;;13.43;;
22644;SDS011;11489;50.834;6.752;2022-11-20T05:00:33;26.23;;;13.50;;
22644;SDS011;11489;50.834;6.752;2022-11-20T05:02:58;27.43;;;13.80;;
22644;SDS011;11489;50.834;6.752;2022-11-20T05:05:24;26.70;;;13.13;;
22644;SDS011;11489;50.834;6.752;2022-11-20T05:07:50;30.40;;;13.90;;
22644;SDS011;11489;50.834;6.752;2022-11-20T05:10:15;28.53;;;13.77;;
22644;SDS011;11489;50.834;6.752;2022-11-20T05:12:41;26.67;;;13.13;;
22644;SDS011;11489;50.834;6.752;2022-11-20T05:15:07;28.47;;;14.50;;
22644;SDS011;11489;50.834;6.752;2022-11-20T05:17:32;27.67;;;14.07;;
22644;SDS011;11489;50.834;6.752;2022-11-20T05:19:58;27.87;;;12.77;;
22644;SDS011;11489;50.834;6.752;2022-11-20T05:22:24;28.53;;;14.03;;
22644;SDS011;11489;50.834;6.752;2022-11-20T05:24:49;30.90;;;15.33;;
22644;SDS011;11489;50.834;6.752;2022-11-20T05:27:15;32.20;;;15.20;;
22644;SDS011;11489;50.834;6.752;2022-11-20T05:29:41;28.60;;;14.40;;
22644;SDS011;11489;50.834;6.752;2022-11-20T05:32:06;28.23;;;14.80;;
22644;SDS011;11489;50.834;6.752;2022-11-20T05:34:34;29.30;;;15.10;;
22644;SDS011;11489;50.834;6.752;2022-11-20T05:37:00;32.37;;;16.07;;
22644;SDS011;11489;50.834;6.752;2022-11-20T05:39:26;32.07;;;15.13;;
22644;SDS011;11489;50.834;6.752;2022-11-20T05:41:52;29.67;;;14.90;;
22644;SDS011;11489;50.834;6.752;2022-11-20T05:44:38;31.53;;;14.93;;
22644;SDS011;11489;50.834;6.752;2022-11-20T05:47:04;28.93;;;14.67;;
22644;SDS011;11489;50.834;6.752;2022-11-20T05:49:30;29.50;;;14.73;;
22644;SDS011;11489;50.834;6.752;2022-11-20T05:51:55;33.43;;;15.50;;
22644;SDS011;11489;50.834;6.752;2022-11-20T05:54:21;29.93;;;14.33;;
22644;SDS011;11489;50.834;6.752;2022-11-20T05:56:47;32.60;;;15.43;;
22644;SDS011;11489;50.834;6.752;2022-11-20T05:59:12;30.03;;;14.50;;
22644;SDS011;11489;50.834;6.752;2022-11-20T06:01:38;29.07;;;14.67;;
22644;SDS011;11489;50.834;6.752;2022-11-20T06:04:04;35.90;;;15.60;;
22644;SDS011;11489;50.834;6.752;2022-11-20T06:06:29;29.90;;;15.33;;
22644;SDS011;11489;50.834;6.752;2022-11-20T06:08:55;27.07;;;14.77;;
22644;SDS011;11489;50.834;6.752;2022-11-20T06:11:21;31.63;;;15.17;;
22644;SDS011;11489;50.834;6.752;2022-11-20T06:13:47;30.80;;;14.87;;
22644;SDS011;11489;50.834;6.752;2022-11-20T06:16:14;37.20;;;17.10;;
22644;SDS011;11489;50.834;6.752;2022-11-20T06:18:42;30.37;;;14.77;;
22644;SDS011;11489;50.834;6.752;2022-11-20T06:21:09;36.20;;;17.10;;
22644;SDS011;11489;50.834;6.752;2022-11-20T06:23:42;32.20;;;16.13;;
22644;SDS011;11489;50.834;6.752;2022-11-20T06:26:16;29.23;;;14.53;;
22644;SDS011;11489;50.834;6.752;2022-11-20T06:28:43;31.77;;;15.30;;
22644;SDS011;11489;50.834;6.752;2022-11-20T06:31:10;33.63;;;15.90;;
22644;SDS011;11489;50.834;6.752;2022-11-20T06:33:37;33.43;;;15.93;;
22644;SDS011;11489;50.834;6.752;2022-11-20T06:36:03;29.37;;;14.53;;
22644;SDS011;11489;50.834;6.752;2022-11-20T06:38:29;30.37;;;15.23;;
22644;SDS011;11489;50.834;6.752;2022-11-20T06:40:55;34.80;;;16.53;;
22644;SDS011;11489;50.834;6.752;2022-11-20T06:43:21;41.67;;;18.73;;
22644;SDS011;11489;50.834;6.752;2022-11-20T06:45:52;49.47;;;22.43;;
22644;SDS011;11489;50.834;6.752;2022-11-20T06:48:19;47.20;;;21.33;;
22644;SDS011;11489;50.834;6.752;2022-11-20T06:50:45;38.13;;;17.47;;
22644;SDS011;11489;50.834;6.752;2022-11-20T06:53:11;34.33;;;16.50;;
22644;SDS011;11489;50.834;6.752;2022-11-20T06:55:37;34.43;;;16.63;;
22644;SDS011;11489;50.834;6.752;2022-11-20T06:58:10;34.70;;;16.30;;
22644;SDS011;11489;50.834;6.752;2022-11-20T07:00:37;36.47;;;15.97;;
22644;SDS011;11489;50.834;6.752;2022-11-20T07:03:03;34.23;;;16.17;;
22644;SDS011;11489;50.834;6.752;2022-11-20T07:05:29;33.00;;;15.33;;
22644;SDS011;11489;50.834;6.752;2022-11-20T07:07:55;33.17;;;15.70;;
22644;SDS011;11489;50.834;6.752;2022-11-20T07:10:21;31.50;;;14.90;;
22644;SDS011;11489;50.834;6.752;2022-11-20T07:12:50;33.67;;;16.20;;
22644;SDS011;11489;50.834;6.752;2022-11-20T07:15:17;37.47;;;16.27;;
22644;SDS011;11489;50.834;6.752;2022-11-20T07:17:43;33.93;;;16.77;;
22644;SDS011;11489;50.834;6.752;2022-11-20T07:20:09;33.43;;;16.10;;
22644;SDS011;11489;50.834;6.752;2022-11-20T07:22:35;33.67;;;15.30;;
22644;SDS011;11489;50.834;6.752;2022-11-20T07:25:01;31.67;;;15.17;;
22644;SDS011;11489;50.834;6.752;2022-11-20T07:27:27;31.17;;;15.13;;
22644;SDS011;11489;50.834;6.752;2022-11-20T07:29:53;34.77;;;15.93;;
22644;SDS011;11489;50.834;6.752;2022-11-20T07:32:18;33.73;;;15.97;;
22644;SDS011;11489;50.834;6.752;2022-11-20T07:34:44;32.37;;;15.23;;
22644;SDS011;11489;50.834;6.752;2022-11-20T07:37:10;31.73;;;15.63;;
22644;SDS011;11489;50.834;6.752;2022-11-20T07:39:35;33.53;;;15.30;;
22644;SDS011;11489;50.834;6.752;2022-11-20T07:42:01;37.03;;;16.67;;
22644;SDS011;11489;50.834;6.752;2022-11-20T07:44:27;34.53;;;15.53;;
22644;SDS011;11489;50.834;6.752;2022-11-20T07:46:52;33.17;;;16.03;;
22644;SDS011;11489;50.834;6.752;2022-11-20T07:49:18;36.20;;;16.33;;
22644;SDS011;11489;50.834;6.752;2022-11-20T07:51:44;33.30;;;15.53;;
22644;SDS011;11489;50.834;6.752;2022-11-20T07:54:09;30.87;;;15.53;;
22644;SDS011;11489;50.834;6.752;2022-11-20T07:56:35;36.53;;;16.70;;
22644;SDS011;11489;50.834;6.752;2022-11-20T07:59:00;31.27;;;15.33;;
22644;SDS011;11489;50.834;6.752;2022-11-20T08:01:26;34.20;;;16.30;;
22644;SDS011;11489;50.834;6.752;2022-11-20T08:03:52;37.97;;;17.53;;
22644;SDS011;11489;50.834;6.752;2022-11-20T08:06:17;35.10;;;16.87;;
22644;SDS011;11489;50.834;6.752;2022-11-20T08:08:44;33.37;;;16.00;;
22644;SDS011;11489;50.834;6.752;2022-11-20T08:11:10;37.03;;;17.07;;
22644;SDS011;11489;50.834;6.752;2022-11-20T08:14:02;33.77;;;16.60;;
22644;SDS011;11489;50.834;6.752;2022-11-20T08:16:37;32.43;;;15.77;;
22644;SDS011;11489;50.834;6.752;2022-11-20T08:19:03;36.37;;;16.93;;
22644;SDS011;11489;50.834;6.752;2022-11-20T08:21:29;36.17;;;17.27;;
22644;SDS011;11489;50.834;6.752;2022-11-20T08:23:56;35.30;;;16.53;;
22644;SDS011;11489;50.834;6.752;2022-11-20T08:26:22;38.27;;;17.33;;
22644;SDS011;11489;50.834;6.752;2022-11-20T08:28:48;36.67;;;17.57;;
22644;SDS011;11489;50.834;6.752;2022-11-20T08:31:17;34.30;;;17.33;;
22644;SDS011;11489;50.834;6.752;2022-11-20T08:33:43;36.73;;;17.30;;
22644;SDS011;11489;50.834;6.752;2022-11-20T08:36:09;36.63;;;17.53;;
22644;SDS011;11489;50.834;6.752;2022-11-20T08:38:34;37.47;;;17.30;;
22644;SDS011;11489;50.834;6.752;2022-11-20T08:41:00;37.47;;;17.60;;
22644;SDS011;11489;50.834;6.752;2022-11-20T08:43:46;36.47;;;16.97;;
22644;SDS011;11489;50.834;6.752;2022-11-20T08:46:12;37.77;;;18.73;;
22644;SDS011;11489;50.834;6.752;2022-11-20T08:48:38;38.93;;;17.30;;
22644;SDS011;11489;50.834;6.752;2022-11-20T08:51:04;39.77;;;18.27;;
22644;SDS011;11489;50.834;6.752;2022-11-20T08:53:30;38.10;;;17.50;;
22644;SDS011;11489;50.834;6.752;2022-11-20T08:55:59;37.30;;;17.47;;
22644;SDS011;11489;50.834;6.752;2022-11-20T08:58:25;38.17;;;18.10;;
22644;SDS011;11489;50.834;6.752;2022-11-20T09:00:51;38.07;;;17.50;;
22644;SDS011;11489;50.834;6.752;2022-11-20T09:03:16;35.87;;;16.87;;
22644;SDS011;11489;50.834;6.752;2022-11-20T09:05:42;36.33;;;17.43;;
22644;SDS011;11489;50.834;6.752;2022-11-20T09:08:08;34.17;;;16.60;;
22644;SDS011;11489;50.834;6.752;2022-11-20T09:10:34;33.93;;;16.17;;
22644;SDS011;11489;50.834;6.752;2022-11-20T09:13:00;33.57;;;15.63;;
22644;SDS011;11489;50.834;6.752;2022-11-20T09:15:26;35.97;;;16.15;;
22644;SDS011;11489;50.834;6.752;2022-11-20T09:17:52;34.88;;;16.02;;
22644;SDS011;11489;50.834;6.752;2022-11-20T09:20:19;33.25;;;15.82;;
22644;SDS011;11489;50.834;6.752;2022-11-20T09:22:45;32.63;;;16.38;;
22644;SDS011;11489;50.834;6.752;2022-11-20T09:25:11;36.33;;;16.77;;
22644;SDS011;11489;50.834;6.752;2022-11-20T09:27:37;35.35;;;17.67;;
22644;SDS011;11489;50.834;6.752;2022-11-20T09:30:03;34.78;;;17.25;;
22644;SDS011;11489;50.834;6.752;2022-11-20T09:32:29;36.35;;;17.30;;
22644;SDS011;11489;50.834;6.752;2022-11-20T09:34:54;32.78;;;16.30;;
22644;SDS011;11489;50.834;6.752;2022-11-20T09:37:20;34.30;;;16.35;;
22644;SDS011;11489;50.834;6.752;2022-11-20T09:39:46;34.92;;;16.10;;
22644;SDS011;11489;50.834;6.752;2022-11-20T09:42:22;36.83;;;17.00;;
22644;SDS011;11489;50.834;6.752;2022-11-20T09:45:12;35.10;;;16.33;;
22644;SDS011;11489;50.834;6.752;2022-11-20T09:48:08;30.30;;;15.18;;
22644;SDS011;11489;50.834;6.752;2022-11-20T09:50:48;36.63;;;16.65;;
22644;SDS011;11489;50.834;6.752;2022-11-20T09:56:03;36.38;;;16.85;;
22644;SDS011;11489;50.834;6.752;2022-11-20T09:58:40;34.00;;;17.13;;
22644;SDS011;11489;50.834;6.752;2022-11-20T10:01:16;31.75;;;16.63;;
22644;SDS011;11489;50.834;6.752;2022-11-20T10:07:19;29.80;;;15.05;;
22644;SDS011;11489;50.834;6.752;2022-11-20T10:09:43;30.50;;;15.32;;
22644;SDS011;11489;50.834;6.752;2022-11-20T10:12:22;27.90;;;14.95;;
22644;SDS011;11489;50.834;6.752;2022-11-20T10:15:21;33.83;;;16.20;;
22644;SDS011;11489;50.834;6.752;2022-11-20T10:23:45;31.77;;;16.00;;
22644;SDS011;11489;50.834;6.752;2022-11-20T10:26:22;31.42;;;15.57;;
22644;SDS011;11489;50.834;6.752;2022-11-20T10:29:02;30.35;;;15.75;;
22644;SDS011;11489;50.834;6.752;2022-11-20T10:31:48;30.77;;;15.70;;
22644;SDS011;11489;50.834;6.752;2022-11-20T10:34:31;28.67;;;15.55;;
22644;SDS011;11489;50.834;6.752;2022-11-20T10:37:16;31.70;;;15.30;;
22644;SDS011;11489;50.834;6.752;2022-11-20T10:43:32;30.08;;;14.20;;
22644;SDS011;11489;50.834;6.752;2022-11-20T10:48:40;28.50;;;13.95;;
22644;SDS011;11489;50.834;6.752;2022-11-20T10:51:15;31.23;;;14.45;;
22644;SDS011;11489;50.834;6.752;2022-11-20T10:54:06;28.08;;;14.35;;
22644;SDS011;11489;50.834;6.752;2022-11-20T10:56:43;28.30;;;13.85;;
22644;SDS011;11489;50.834;6.752;2022-11-20T10:59:55;30.92;;;15.23;;
22644;SDS011;11489;50.834;6.752;2022-11-20T11:02:16;26.83;;;13.63;;
22644;SDS011;11489;50.834;6.752;2022-11-20T11:04:51;28.23;;;14.23;;
22644;SDS011;11489;50.834;6.752;2022-11-20T11:07:29;30.40;;;14.85;;
22644;SDS011;11489;50.834;6.752;2022-11-20T11:09:59;30.35;;;15.38;;
22644;SDS011;11489;50.834;6.752;2022-11-20T11:12:25;29.83;;;14.23;;
22644;SDS011;11489;50.834;6.752;2022-11-20T11:14:54;30.90;;;14.88;;
22644;SDS011;11489;50.834;6.752;2022-11-20T11:17:22;28.35;;;14.98;;
22644;SDS011;11489;50.834;6.752;2022-11-20T11:19:59;28.20;;;14.82;;
22644;SDS011;11489;50.834;6.752;2022-11-20T11:22:47;26.27;;;13.57;;
22644;SDS011;11489;50.834;6.752;2022-11-20T11:25:19;29.90;;;14.88;;
22644;SDS011;11489;50.834;6.752;2022-11-20T11:27:48;31.23;;;14.90;;
22644;SDS011;11489;50.834;6.752;2022-11-20T11:30:16;27.42;;;14.38;;
22644;SDS011;11489;50.834;6.752;2022-11-20T11:32:44;29.92;;;14.98;;
22644;SDS011;11489;50.834;6.752;2022-11-20T11:37:50;29.33;;;14.77;;
22644;SDS011;11489;50.834;6.752;2022-11-20T11:40:19;29.10;;;14.85;;
22644;SDS011;11489;50.834;6.752;2022-11-20T11:42:49;29.77;;;15.68;;
22644;SDS011;11489;50.834;6.752;2022-11-20T11:45:19;27.55;;;14.48;;
22644;SDS011;11489;50.834;6.752;2022-11-20T11:47:46;28.23;;;14.45;;
22644;SDS011;11489;50.834;6.752;2022-11-20T11:50:26;29.08;;;14.05;;
22644;SDS011;11489;50.834;6.752;2022-11-20T11:52:56;31.88;;;14.88;;
22644;SDS011;11489;50.834;6.752;2022-11-20T11:55:53;26.83;;;13.82;;
22644;SDS011;11489;50.834;6.752;2022-11-20T12:00:58;26.13;;;13.82;;
22644;SDS011;11489;50.834;6.752;2022-11-20T12:03:36;26.40;;;14.05;;
22644;SDS011;11489;50.834;6.752;2022-11-20T12:06:13;27.95;;;14.48;;
22644;SDS011;11489;50.834;6.752;2022-11-20T12:13:57;25.77;;;13.15;;
22644;SDS011;11489;50.834;6.752;2022-11-20T12:16:30;25.80;;;13.63;;
22644;SDS011;11489;50.834;6.752;2022-11-20T12:19:00;26.23;;;13.75;;
22644;SDS011;11489;50.834;6.752;2022-11-20T12:21:35;25.23;;;14.57;;
22644;SDS011;11489;50.834;6.752;2022-11-20T12:27:21;24.40;;;13.15;;
22644;SDS011;11489;50.834;6.752;2022-11-20T12:30:14;27.35;;;14.30;;
22644;SDS011;11489;50.834;6.752;2022-11-20T12:38:28;27.40;;;14.95;;
22644;SDS011;11489;50.834;6.752;2022-11-20T12:44:28;28.88;;;15.52;;
22644;SDS011;11489;50.834;6.752;2022-11-20T12:47:39;28.60;;;14.65;;
22644;SDS011;11489;50.834;6.752;2022-11-20T12:50:17;28.85;;;14.82;;
22644;SDS011;11489;50.834;6.752;2022-11-20T12:53:00;27.58;;;14.52;;
22644;SDS011;11489;50.834;6.752;2022-11-20T12:55:49;31.20;;;15.52;;
22644;SDS011;11489;50.834;6.752;2022-11-20T12:58:44;32.28;;;15.27;;
22644;SDS011;11489;50.834;6.752;2022-11-20T13:01:32;29.90;;;15.10;;
22644;SDS011;11489;50.834;6.752;2022-11-20T13:06:57;30.02;;;15.10;;
22644;SDS011;11489;50.834;6.752;2022-11-20T13:09:23;33.70;;;15.93;;
22644;SDS011;11489;50.834;6.752;2022-11-20T13:12:04;29.23;;;15.07;;
22644;SDS011;11489;50.834;6.752;2022-11-20T13:14:43;28.65;;;14.45;;
22644;SDS011;11489;50.834;6.752;2022-11-20T13:17:34;29.40;;;15.20;;
22644;SDS011;11489;50.834;6.752;2022-11-20T13:20:06;29.90;;;14.85;;
22644;SDS011;11489;50.834;6.752;2022-11-20T13:22:48;27.02;;;14.63;;
22644;SDS011;11489;50.834;6.752;2022-11-20T13:27:56;29.20;;;14.35;;
22644;SDS011;11489;50.834;6.752;2022-11-20T13:30:23;26.85;;;14.90;;
22644;SDS011;11489;50.834;6.752;2022-11-20T13:35:25;30.10;;;14.63;;
22644;SDS011;11489;50.834;6.752;2022-11-20T13:38:03;26.00;;;14.15;;
22644;SDS011;11489;50.834;6.752;2022-11-20T13:40:31;28.95;;;14.15;;
22644;SDS011;11489;50.834;6.752;2022-11-20T13:43:40;30.52;;;14.85;;
22644;SDS011;11489;50.834;6.752;2022-11-20T13:46:07;26.75;;;14.15;;
22644;SDS011;11489;50.834;6.752;2022-11-20T13:48:41;24.50;;;13.65;;
22644;SDS011;11489;50.834;6.752;2022-11-20T13:51:21;28.00;;;13.77;;
22644;SDS011;11489;50.834;6.752;2022-11-20T13:56:21;26.13;;;12.88;;
22644;SDS011;11489;50.834;6.752;2022-11-20T14:02:16;28.60;;;14.48;;
22644;SDS011;11489;50.834;6.752;2022-11-20T14:04:45;29.52;;;13.85;;
22644;SDS011;11489;50.834;6.752;2022-11-20T14:07:12;28.73;;;14.73;;
22644;SDS011;11489;50.834;6.752;2022-11-20T14:09:48;27.33;;;14.40;;
22644;SDS011;11489;50.834;6.752;2022-11-20T14:12:19;29.73;;;14.90;;
22644;SDS011;11489;50.834;6.752;2022-11-20T14:14:49;24.52;;;13.98;;
22644;SDS011;11489;50.834;6.752;2022-11-20T14:20:00;31.95;;;15.63;;
22644;SDS011;11489;50.834;6.752;2022-11-20T14:22:29;28.25;;;14.23;;
22644;SDS011;11489;50.834;6.752;2022-11-20T14:25:05;30.23;;;14.77;;
22644;SDS011;11489;50.834;6.752;2022-11-20T14:27:39;30.52;;;15.23;;
22644;SDS011;11489;50.834;6.752;2022-11-20T14:30:21;30.60;;;14.93;;
22644;SDS011;11489;50.834;6.752;2022-11-20T14:32:49;27.83;;;14.38;;
22644;SDS011;11489;50.834;6.752;2022-11-20T14:35:19;29.70;;;14.57;;
22644;SDS011;11489;50.834;6.752;2022-11-20T14:37:50;29.50;;;15.32;;
22644;SDS011;11489;50.834;6.752;2022-11-20T14:43:01;29.35;;;15.70;;
22644;SDS011;11489;50.834;6.752;2022-11-20T14:45:29;30.40;;;15.52;;
22644;SDS011;11489;50.834;6.752;2022-11-20T14:47:55;31.35;;;15.68;;
22644;SDS011;11489;50.834;6.752;2022-11-20T14:50:23;29.08;;;14.95;;
22644;SDS011;11489;50.834;6.752;2022-11-20T14:52:58;27.95;;;14.77;;
22644;SDS011;11489;50.834;6.752;2022-11-20T14:55:26;31.98;;;15.30;;
22644;SDS011;11489;50.834;6.752;2022-11-20T14:58:00;30.02;;;14.65;;
22644;SDS011;11489;50.834;6.752;2022-11-20T15:00:28;30.30;;;14.65;;
22644;SDS011;11489;50.834;6.752;2022-11-20T15:02:55;27.30;;;13.90;;
22644;SDS011;11489;50.834;6.752;2022-11-20T15:05:22;25.65;;;13.82;;
22644;SDS011;11489;50.834;6.752;2022-11-20T15:07:51;31.73;;;15.52;;
22644;SDS011;11489;50.834;6.752;2022-11-20T15:10:37;28.20;;;14.63;;
22644;SDS011;11489;50.834;6.752;2022-11-20T15:13:13;27.83;;;13.88;;
22644;SDS011;11489;50.834;6.752;2022-11-20T15:16:03;25.83;;;12.15;;
22644;SDS011;11489;50.834;6.752;2022-11-20T15:18:39;21.67;;;11.30;;
22644;SDS011;11489;50.834;6.752;2022-11-20T15:21:13;21.50;;;9.68;;
22644;SDS011;11489;50.834;6.752;2022-11-20T15:23:40;19.75;;;8.43;;
22644;SDS011;11489;50.834;6.752;2022-11-20T15:26:07;16.13;;;6.85;;
22644;SDS011;11489;50.834;6.752;2022-11-20T15:28:41;10.85;;;5.88;;
22644;SDS011;11489;50.834;6.752;2022-11-20T15:31:12;10.25;;;5.70;;
22644;SDS011;11489;50.834;6.752;2022-11-20T15:33:39;9.55;;;5.25;;
22644;SDS011;11489;50.834;6.752;2022-11-20T15:36:05;8.27;;;4.32;;
22644;SDS011;11489;50.834;6.752;2022-11-20T15:38:30;7.10;;;3.78;;
22644;SDS011;11489;50.834;6.752;2022-11-20T15:40:56;6.57;;;2.95;;
22644;SDS011;11489;50.834;6.752;2022-11-20T15:43:23;8.27;;;3.20;;